»·PEaware :: N78G KPSP-F70

N78G :: KPSP-F70

FLIGHT INFORMATION

Flight Status: Arrived
Operator: Privately registered:
United States
More flights under this callsign
Pilot: Erik B. (9150)
Aircraft: CESSNA 172 SKYHAWK
(C172)
More flights by this aircraft type
Origin: KPSP Palm Springs Intl
United States
Destination: F70 French Valley
United States
More flights between these airports :: More routes between these airports
Route: +
File this flight plan on PilotEdge
Remarks:
Altitude:
(Current/Filed)
6,500ft
Speed:
(Current/Filed)
0kts
Departed: 11-May-19 10:31 AM
Arrived: 11-May-19 11:13 AM
Distance/Time
Traveled:
35nm/0:42
Distance/Time
To Go:
Arrived

Flight Plot

Page will automatically refresh every two minutes.


Map Options




Map Legend


Flown Route
Filed Route
Departure Airport
Arrival Airport
Navaid (VOR, NDB)
Fix

Horizontal Profiles

Position Reports

Time Latitude Longitude Heading Altitude Ground
Speed
11-May-19 10:24 33.824513 -116.498615 55 400ft 0kts
11-May-19 10:25 33.824513 -116.498615 55 400ft 0kts
11-May-19 10:26 33.824593 -116.498580 338 400ft 4kts
11-May-19 10:27 33.824611 -116.499657 233 403ft 0kts
11-May-19 10:28 33.824609 -116.499661 232 403ft 0kts
11-May-19 10:29 33.824567 -116.499722 228 403ft 4kts
11-May-19 10:30 33.834306 -116.508443 325 537ft 72kts
11-May-19 10:31 33.850273 -116.506516 68 907ft 71kts
11-May-19 10:32 33.838772 -116.488425 141 1204ft 78kts
11-May-19 10:33 33.818842 -116.486729 200 1532ft 81kts
11-May-19 10:34 33.796999 -116.493396 188 1808ft 81kts
11-May-19 10:35 33.774372 -116.496081 182 2125ft 82kts
11-May-19 10:36 33.751667 -116.497765 185 2435ft 82kts
11-May-19 10:37 33.728659 -116.501024 185 2706ft 83kts
11-May-19 10:38 33.705679 -116.503604 170 2979ft 84kts
11-May-19 10:39 33.683176 -116.500027 174 3275ft 81kts
11-May-19 10:40 33.661888 -116.503326 239 3508ft 81kts
11-May-19 10:41 33.663475 -116.526191 346 3729ft 81kts
11-May-19 10:42 33.683953 -116.515391 28 3954ft 81kts
11-May-19 10:43 33.702506 -116.501596 74 4209ft 79kts
11-May-19 10:44 33.685804 -116.492739 189 4382ft 82kts
11-May-19 10:45 33.662918 -116.494237 177 4587ft 82kts
11-May-19 10:46 33.639765 -116.495581 185 4783ft 83kts
11-May-19 10:47 33.617264 -116.500051 191 4973ft 81kts
11-May-19 10:48 33.594997 -116.505705 191 5145ft 81kts
11-May-19 10:49 33.572669 -116.511463 192 5308ft 82kts
11-May-19 10:50 33.554458 -116.527669 220 5416ft 82kts
11-May-19 10:51 33.543357 -116.550583 256 5484ft 82kts
11-May-19 10:52 33.548452 -116.575809 295 5562ft 83kts
11-May-19 10:53 33.553638 -116.603160 275 5693ft 84kts
11-May-19 10:54 33.555391 -116.632623 273 5633ft 103kts
11-May-19 10:55 33.556971 -116.668849 272 5136ft 110kts
11-May-19 10:56 33.558323 -116.703383 272 4671ft 112kts
11-May-19 10:57 33.552555 -116.738309 255 4470ft 98kts
11-May-19 10:58 33.547451 -116.770686 273 4471ft 99kts
11-May-19 10:59 33.554087 -116.802934 291 4416ft 100kts
11-May-19 11:00 33.563543 -116.834422 279 4355ft 100kts
11-May-19 11:01 33.564550 -116.867904 270 4295ft 99kts
11-May-19 11:02 33.565390 -116.901215 273 4222ft 100kts
11-May-19 11:03 33.566691 -116.934333 274 4089ft 98kts
11-May-19 11:04 33.568273 -116.966847 273 3477ft 97kts
11-May-19 11:05 33.569457 -116.998580 273 2988ft 91kts
11-May-19 11:06 33.570597 -117.030287 272 2812ft 95kts
11-May-19 11:07 33.571809 -117.063116 272 2394ft 97kts
11-May-19 11:08 33.577812 -117.094208 262 2308ft 94kts
11-May-19 11:09 33.563924 -117.117181 191 2352ft 84kts
11-May-19 11:10 33.542038 -117.125727 243 2061ft 85kts
11-May-19 11:11 33.555372 -117.133515 12 1598ft 73kts
11-May-19 11:12 33.571438 -117.129208 11 1354ft 29kts
11-May-19 11:13 33.574927 -117.129230 344 1354ft 9kts
11-May-19 11:14 33.575282 -117.130648 190 1354ft 0kts

Navigation Log

Ident Type
Flight plan parsing failed, navigation log unavailable